Three Rivers, Michigan
Current Conditions -  °F | °C
As of 9:15 AM on Thursday 27 Nov 2014 (Local Time) from KHAI Reporting Station
Light Snow Light Snow  
Wind Chill: 25°   Ceiling: 1700
Heat Index: 29°   Visibility: 2mi
Dew Point: 26°   Wind: 5mph
Humidity: 86%   Direction: 260°W
Pressure: 30.2"   Gusts: NA
Location:  41.94°N, 85.64°W
Report Text: KHAI 271415Z AUTO 26004KT 2SM -SN BKN017 SCT028 OVC039 M01/M03 A3020 RMK AO2 T10141034
Loading
Personal Weather Stations






























Interactive Weather Map New forecast layout! Learn more

10-Day Weather Forecast

Advertisements
Track Severe Weather on mobile